Station Historical Data
Daily Summary for December 4, 2017 Units:  English    Metric   Both
Next Day »
Daily Weekly Monthly Yearly Custom
  High: Low: Average:
Temperature: 48.7 °F 34.3 °F 40.6 °F
Dew Point: 29.3 °F 17.1 °F 22 °F
Humidity: 67% 31% 48%
Wind Speed: 26.0mph 0.0mph 3.4mph
Wind Gust: 36.0mph - -
Wind- - East
Pressure: 30.34 in 30.18 in -
Precipitation: 0.00 in    
Historical Graphs
 
 
Tabular Data for December 4, 2017
Time Temperature Dew Point Pressure Wind Wind Speed Wind Gust Humidity Rainfall Rate (Hourly) solar Conditions
00:03 35.1 °F 23.8 °F 30.25 in NE 5.0 mph 9.0 mph 63% 0.00 in 0.00 W/m2
00:08 35.3 °F 23.2 °F 30.25 in Calm   7.0 mph 61% 0.00 in 0.00 W/m2
00:13 35.5 °F 23.0 °F 30.25 in NE 3.0 mph 5.0 mph 60% 0.00 in 0.00 W/m2
00:18 35.6 °F 23.1 °F 30.25 in Calm   7.0 mph 60% 0.00 in 0.00 W/m2
00:23 35.6 °F 22.7 °F 30.25 in Calm   8.0 mph 59% 0.00 in 0.00 W/m2
00:28 35.6 °F 22.3 °F 30.25 in Calm   7.0 mph 58% 0.00 in 0.00 W/m2
00:33 35.7 °F 24.0 °F 30.25 in NNE 7.0 mph 9.0 mph 62% 0.00 in 0.00 W/m2
00:38 35.6 °F 23.5 °F 30.25 in Calm   8.0 mph 61% 0.00 in 0.00 W/m2
00:43 35.7 °F 24.4 °F 30.24 in NNE 4.0 mph 9.0 mph 63% 0.00 in 0.00 W/m2
00:48 35.5 °F 23.8 °F 30.23 in Calm   7.0 mph 62% 0.00 in 0.00 W/m2
00:53 35.2 °F 24.6 °F 30.23 in Calm   7.0 mph 65% 0.00 in 0.00 W/m2
00:58 34.9 °F 25.1 °F 30.23 in Calm   3.0 mph 67% 0.00 in 0.00 W/m2
01:03 34.6 °F 24.8 °F 30.23 in Calm   3.0 mph 67% 0.00 in 0.00 W/m2
01:08 34.5 °F 23.6 °F 30.24 in Calm     64% 0.00 in 0.00 W/m2
01:13 34.5 °F 24.0 °F 30.23 in Calm     65% 0.00 in 0.00 W/m2
01:18 34.6 °F 23.3 °F 30.23 in ENE 2.0 mph 8.0 mph 63% 0.00 in 0.00 W/m2
01:24 34.6 °F 24.1 °F 30.23 in NE 1.0 mph 7.0 mph 65% 0.00 in 0.00 W/m2
01:28 34.6 °F 23.7 °F 30.23 in Calm   7.0 mph 64% 0.00 in 0.00 W/m2
01:34 34.7 °F 23.8 °F 30.23 in East 10.0 mph 10.0 mph 64% 0.00 in 0.00 W/m2
01:39 34.7 °F 24.1 °F 30.23 in Calm   12.0 mph 65% 0.00 in 0.00 W/m2
01:44 34.9 °F 24.0 °F 30.23 in Calm   10.0 mph 64% 0.00 in 0.00 W/m2
01:49 35.0 °F 23.3 °F 30.23 in East 2.0 mph 10.0 mph 62% 0.00 in 0.00 W/m2
01:54 35.2 °F 23.5 °F 30.22 in East 19.0 mph 21.0 mph 62% 0.00 in 0.00 W/m2
01:59 35.8 °F 22.1 °F 30.22 in East 15.0 mph 25.0 mph 57% 0.00 in 0.00 W/m2
02:04 36.5 °F 23.5 °F 30.23 in Calm   25.0 mph 59% 0.00 in 0.00 W/m2
02:09 37.0 °F 23.6 °F 30.23 in East 11.0 mph 21.0 mph 58% 0.00 in 0.00 W/m2
02:14 37.3 °F 22.6 °F 30.23 in East 12.0 mph 19.0 mph 55% 0.00 in 0.00 W/m2
02:19 37.6 °F 24.2 °F 30.23 in Calm   17.0 mph 58% 0.00 in 0.00 W/m2
02:24 37.7 °F 23.4 °F 30.23 in ENE 7.0 mph 25.0 mph 56% 0.00 in 0.00 W/m2
02:29 37.7 °F 24.3 °F 30.23 in East 10.0 mph 24.0 mph 58% 0.00 in 0.00 W/m2
02:39 37.7 °F 23.4 °F 30.23 in ENE 8.0 mph 22.0 mph 56% 0.00 in 0.00 W/m2
02:44 37.9 °F 22.3 °F 30.23 in NE 3.0 mph 18.0 mph 53% 0.00 in 0.00 W/m2
02:49 38.2 °F 23.0 °F 30.23 in East 4.0 mph 17.0 mph 54% 0.00 in 0.00 W/m2
02:54 38.0 °F 23.7 °F 30.23 in East 8.0 mph 16.0 mph 56% 0.00 in 0.00 W/m2
02:59 37.8 °F 23.5 °F 30.23 in ENE 8.0 mph 18.0 mph 56% 0.00 in 0.00 W/m2
03:04 37.9 °F 22.3 °F 30.23 in ENE 11.0 mph 19.0 mph 53% 0.00 in 0.00 W/m2
03:09 38.0 °F 22.9 °F 30.23 in East 14.0 mph 17.0 mph 54% 0.00 in 0.00 W/m2
03:14 37.9 °F 23.6 °F 30.23 in ENE 5.0 mph 20.0 mph 56% 0.00 in 0.00 W/m2
03:19 37.7 °F 23.0 °F 30.22 in East 9.0 mph 14.0 mph 55% 0.00 in 0.00 W/m2
03:24 37.6 °F 24.2 °F 30.22 in ENE 3.0 mph 20.0 mph 58% 0.00 in 0.00 W/m2
03:29 37.4 °F 23.6 °F 30.22 in ENE 13.0 mph 18.0 mph 57% 0.00 in 0.00 W/m2
03:34 37.4 °F 23.1 °F 30.22 in East 15.0 mph 20.0 mph 56% 0.00 in 0.00 W/m2
03:39 37.8 °F 20.4 °F 30.22 in ENE 4.0 mph 19.0 mph 49% 0.00 in 0.00 W/m2
03:44 38.6 °F 22.0 °F 30.22 in Calm   26.0 mph 51% 0.00 in 0.00 W/m2
03:49 38.6 °F 22.5 °F 30.21 in East 15.0 mph 22.0 mph 52% 0.00 in 0.00 W/m2
03:54 38.3 °F 24.4 °F 30.21 in ESE 7.0 mph 21.0 mph 57% 0.00 in 0.00 W/m2
03:59 37.8 °F 24.0 °F 30.21 in ESE 7.0 mph 18.0 mph 57% 0.00 in 0.00 W/m2
04:04 37.5 °F 24.1 °F 30.20 in SE 13.0 mph 23.0 mph 58% 0.00 in 0.00 W/m2
04:09 37.3 °F 22.6 °F 30.21 in ENE 6.0 mph 25.0 mph 55% 0.00 in 0.00 W/m2
04:14 37.2 °F 25.4 °F 30.21 in Calm   13.0 mph 62% 0.00 in 0.00 W/m2
04:19 36.9 °F 25.1 °F 30.21 in East 6.0 mph 17.0 mph 62% 0.00 in 0.00 W/m2
04:24 36.7 °F 23.7 °F 30.20 in East 6.0 mph 14.0 mph 59% 0.00 in 0.00 W/m2
04:29 36.7 °F 23.7 °F 30.20 in East 7.0 mph 11.0 mph 59% 0.00 in 0.00 W/m2
04:34 36.8 °F 22.2 °F 30.20 in East 5.0 mph 23.0 mph 55% 0.00 in 0.00 W/m2
04:39 37.0 °F 24.4 °F 30.19 in East 3.0 mph 15.0 mph 60% 0.00 in 0.00 W/m2
04:44 37.0 °F 23.2 °F 30.19 in ESE 14.0 mph 22.0 mph 57% 0.00 in 0.00 W/m2
04:49 37.1 °F 22.0 °F 30.19 in ESE 15.0 mph 24.0 mph 54% 0.00 in 0.00 W/m2
04:54 37.4 °F 22.7 °F 30.18 in Calm   22.0 mph 55% 0.00 in 0.00 W/m2
05:00 37.6 °F 24.2 °F 30.18 in East 14.0 mph 23.0 mph 58% 0.00 in 0.00 W/m2
05:05 37.8 °F 21.3 °F 30.18 in East 21.0 mph 30.0 mph 51% 0.00 in 0.00 W/m2
05:10 38.0 °F 22.4 °F 30.18 in Calm   24.0 mph 53% 0.00 in 0.00 W/m2
05:15 38.0 °F 26.9 °F 30.19 in East 2.0 mph 19.0 mph 64% 0.00 in 0.00 W/m2
05:20 37.2 °F 25.4 °F 30.19 in NE 1.0 mph 14.0 mph 62% 0.00 in 0.00 W/m2
05:25 36.8 °F 25.4 °F 30.20 in Calm     63% 0.00 in 0.00 W/m2
05:30 36.5 °F 23.5 °F 30.21 in Calm     59% 0.00 in 0.00 W/m2
05:35 36.5 °F 19.6 °F 30.21 in Calm     50% 0.00 in 0.00 W/m2
05:40 36.8 °F 20.8 °F 30.21 in Calm   1.0 mph 52% 0.00 in 0.00 W/m2
05:42 36.8 °F 21.7 °F 30.20 in Calm     54% 0.00 in 0.00 W/m2
05:47 36.9 °F 22.3 °F 30.21 in Calm     55% 0.00 in 0.00 W/m2
05:52 36.9 °F 22.7 °F 30.21 in Calm     56% 0.00 in 0.00 W/m2
05:57 36.8 °F 22.2 °F 30.22 in Calm     55% 0.00 in 0.00 W/m2
06:02 36.6 °F 24.0 °F 30.22 in Calm     60% 0.00 in 0.00 W/m2
06:07 36.3 °F 19.5 °F 30.22 in Calm     50% 0.00 in 0.00 W/m2
06:12 36.2 °F 19.8 °F 30.22 in Calm     51% 0.00 in 0.00 W/m2
06:22 35.8 °F 19.9 °F 30.22 in Calm     52% 0.00 in 0.00 W/m2
06:27 35.6 °F 22.7 °F 30.23 in Calm     59% 0.00 in 0.00 W/m2
06:30 35.5 °F 22.2 °F 30.23 in Calm     58% 0.00 in 0.00 W/m2
06:35 35.2 °F 21.5 °F 30.23 in Calm     57% 0.00 in 0.00 W/m2
06:40 34.8 °F 20.7 °F 30.23 in Calm     56% 0.00 in 0.00 W/m2
06:45 34.6 °F 21.8 °F 30.23 in Calm     59% 0.00 in 0.00 W/m2
06:50 34.4 °F 20.8 °F 30.23 in Calm     57% 0.00 in 0.00 W/m2
06:55 34.3 °F 19.0 °F 30.23 in Calm     53% 0.00 in 0.00 W/m2
07:00 34.3 °F 19.8 °F 30.23 in Calm     55% 0.00 in 5.00 W/m2
07:05 34.4 °F 18.6 °F 30.23 in Calm     52% 0.00 in 5.00 W/m2
07:10 34.4 °F 19.5 °F 30.24 in Calm     54% 0.00 in 7.00 W/m2
07:15 34.5 °F 18.7 °F 30.24 in Calm     52% 0.00 in 11.00 W/m2
07:20 34.6 °F 17.9 °F 30.24 in Calm     50% 0.00 in 12.00 W/m2
07:25 34.7 °F 18.0 °F 30.24 in Calm     50% 0.00 in 14.00 W/m2
07:30 34.9 °F 18.2 °F 30.24 in Calm     50% 0.00 in 19.00 W/m2
07:35 35.0 °F 18.7 °F 30.24 in Calm     51% 0.00 in 30.00 W/m2
07:40 35.1 °F 18.4 °F 30.24 in Calm     50% 0.00 in 40.00 W/m2
07:45 35.2 °F 18.9 °F 30.25 in Calm     51% 0.00 in 51.00 W/m2
07:50 35.2 °F 20.2 °F 30.25 in Calm     54% 0.00 in 67.00 W/m2
07:55 35.4 °F 17.7 °F 30.26 in Calm     48% 0.00 in 83.00 W/m2
08:00 35.7 °F 17.5 °F 30.26 in Calm   2.0 mph 47% 0.00 in 98.00 W/m2
08:05 35.9 °F 17.1 °F 30.26 in Calm   1.0 mph 46% 0.00 in 114.00 W/m2
08:10 36.2 °F 18.4 °F 30.26 in NNE 1.0 mph 1.0 mph 48% 0.00 in 132.00 W/m2
08:15 36.4 °F 18.1 °F 30.27 in Calm   1.0 mph 47% 0.00 in 148.00 W/m2
08:20 36.5 °F 20.6 °F 30.27 in ENE 3.0 mph 3.0 mph 52% 0.00 in 167.00 W/m2
08:25 36.6 °F 20.2 °F 30.27 in Calm   3.0 mph 51% 0.00 in 183.00 W/m2
08:30 36.6 °F 21.1 °F 30.27 in Calm   3.0 mph 53% 0.00 in 197.00 W/m2
08:35 36.7 °F 19.4 °F 30.27 in Calm     49% 0.00 in 216.00 W/m2
08:40 36.8 °F 22.2 °F 30.27 in ENE 2.0 mph 2.0 mph 55% 0.00 in 236.00 W/m2
08:45 37.0 °F 21.9 °F 30.27 in Calm   1.0 mph 54% 0.00 in 250.00 W/m2
08:50 37.3 °F 22.2 °F 30.27 in Calm     54% 0.00 in 269.00 W/m2
08:55 37.8 °F 21.8 °F 30.27 in East 1.0 mph 2.0 mph 52% 0.00 in 285.00 W/m2
09:00 38.4 °F 22.3 °F 30.27 in ENE 18.0 mph 18.0 mph 52% 0.00 in 304.00 W/m2
09:05 39.4 °F 20.9 °F 30.28 in ESE 15.0 mph 15.0 mph 47% 0.00 in 323.00 W/m2
09:10 40.5 °F 21.4 °F 30.28 in East 6.0 mph 8.0 mph 46% 0.00 in 334.00 W/m2
09:15 41.2 °F 20.4 °F 30.28 in East 13.0 mph 14.0 mph 43% 0.00 in 343.00 W/m2
09:20 41.8 °F 22.5 °F 30.28 in Calm     46% 0.00 in 353.00 W/m2
09:25 42.0 °F 22.7 °F 30.29 in NNE 16.0 mph 16.0 mph 46% 0.00 in 366.00 W/m2
09:31 42.0 °F 23.2 °F 30.29 in Calm     47% 0.00 in 376.00 W/m2
09:36 42.0 °F 23.2 °F 30.29 in East 9.0 mph 9.0 mph 47% 0.00 in 387.00 W/m2
09:41 42.5 °F 21.6 °F 30.29 in Calm   2.0 mph 43% 0.00 in 399.00 W/m2
09:46 42.7 °F 21.8 °F 30.29 in East 2.0 mph 2.0 mph 43% 0.00 in 406.00 W/m2
09:51 42.9 °F 20.8 °F 30.29 in East 1.0 mph 22.0 mph 41% 0.00 in 424.00 W/m2
09:56 43.4 °F 18.9 °F 30.30 in ENE 1.0 mph 4.0 mph 37% 0.00 in 432.00 W/m2
10:01 43.9 °F 21.2 °F 30.30 in East 2.0 mph 7.0 mph 40% 0.00 in 436.00 W/m2
10:06 44.2 °F 22.0 °F 30.30 in ESE 24.0 mph 24.0 mph 41% 0.00 in 443.00 W/m2
10:11 44.6 °F 20.6 °F 30.30 in East 20.0 mph 29.0 mph 38% 0.00 in 450.00 W/m2
10:12 44.6 °F 20.6 °F 30.30 in East 24.0 mph 29.0 mph 38% 0.00 in 455.00 W/m2
10:17 44.9 °F 19.6 °F 30.30 in ENE 2.0 mph 17.0 mph 36% 0.00 in 462.00 W/m2
10:22 45.3 °F 18.6 °F 30.30 in Calm   22.0 mph 34% 0.00 in 459.00 W/m2
10:27 45.6 °F 20.9 °F 30.30 in ENE 21.0 mph 28.0 mph 37% 0.00 in 478.00 W/m2
10:32 45.9 °F 20.5 °F 30.30 in Calm   31.0 mph 36% 0.00 in 482.00 W/m2
10:37 46.0 °F 19.2 °F 30.30 in ESE 12.0 mph 29.0 mph 34% 0.00 in 489.00 W/m2
10:42 46.2 °F 20.7 °F 30.30 in East 12.0 mph 27.0 mph 36% 0.00 in 490.00 W/m2
10:47 46.3 °F 20.8 °F 30.30 in NE 10.0 mph 19.0 mph 36% 0.00 in 499.00 W/m2
10:52 46.5 °F 21.6 °F 30.29 in East 24.0 mph 27.0 mph 37% 0.00 in 503.00 W/m2
10:57 46.6 °F 21.1 °F 30.29 in Calm   21.0 mph 36% 0.00 in 510.00 W/m2
11:02 46.7 °F 20.5 °F 30.29 in East 20.0 mph 23.0 mph 35% 0.00 in 513.00 W/m2
11:07 46.8 °F 20.6 °F 30.29 in East 21.0 mph 29.0 mph 35% 0.00 in 510.00 W/m2
11:12 46.9 °F 19.3 °F 30.28 in ENE 25.0 mph 27.0 mph 33% 0.00 in 520.00 W/m2
11:14 46.9 °F 20.7 °F 30.28 in ENE 11.0 mph 27.0 mph 35% 0.00 in 522.00 W/m2
11:19 46.9 °F 19.3 °F 30.28 in ENE 25.0 mph 35.0 mph 33% 0.00 in 527.00 W/m2
11:24 46.9 °F 20.7 °F 30.28 in East 18.0 mph 27.0 mph 35% 0.00 in 508.00 W/m2
11:29 47.0 °F 21.5 °F 30.28 in ENE 15.0 mph 32.0 mph 36% 0.00 in 527.00 W/m2
11:34 47.1 °F 21.5 °F 30.28 in ENE 6.0 mph 24.0 mph 36% 0.00 in 524.00 W/m2
11:39 47.2 °F 20.3 °F 30.27 in ENE 14.0 mph 30.0 mph 34% 0.00 in 531.00 W/m2
11:44 47.1 °F 20.9 °F 30.27 in East 12.0 mph 33.0 mph 35% 0.00 in 545.00 W/m2
11:49 47.2 °F 18.1 °F 30.27 in ENE 21.0 mph 36.0 mph 31% 0.00 in 536.00 W/m2
11:54 47.5 °F 19.9 °F 30.26 in NE 26.0 mph 35.0 mph 33% 0.00 in 529.00 W/m2
11:59 47.6 °F 19.2 °F 30.27 in Calm   22.0 mph 32% 0.00 in 531.00 W/m2
12:04 47.6 °F 21.3 °F 30.26 in SE 18.0 mph 25.0 mph 35% 0.00 in 529.00 W/m2
12:09 47.6 °F 20.6 °F 30.26 in ESE 7.0 mph 26.0 mph 34% 0.00 in 531.00 W/m2
12:14 47.8 °F 21.5 °F 30.26 in Calm   19.0 mph 35% 0.00 in 524.00 W/m2
12:19 47.9 °F 19.5 °F 30.26 in Calm   26.0 mph 32% 0.00 in 526.00 W/m2
12:24 48.1 °F 19.6 °F 30.25 in East 20.0 mph 26.0 mph 32% 0.00 in 519.00 W/m2
12:29 48.2 °F 20.5 °F 30.26 in East 1.0 mph 19.0 mph 33% 0.00 in 519.00 W/m2
12:34 48.2 °F 23.2 °F 30.26 in Calm   13.0 mph 37% 0.00 in 515.00 W/m2
12:39 48.2 °F 24.4 °F 30.26 in East 4.0 mph 15.0 mph 39% 0.00 in 513.00 W/m2
12:44 48.1 °F 20.4 °F 30.26 in East 6.0 mph 20.0 mph 33% 0.00 in 510.00 W/m2
12:49 48.3 °F 19.8 °F 30.25 in ESE 14.0 mph 26.0 mph 32% 0.00 in 501.00 W/m2
12:54 48.5 °F 20.7 °F 30.26 in East 7.0 mph 26.0 mph 33% 0.00 in 499.00 W/m2
12:59 48.7 °F 19.4 °F 30.26 in East 14.0 mph 23.0 mph 31% 0.00 in 492.00 W/m2
13:04 48.7 °F 22.3 °F 30.26 in NE 4.0 mph 26.0 mph 35% 0.00 in 485.00 W/m2
13:14 48.7 °F 24.9 °F 30.26 in SE 9.0 mph 11.0 mph 39% 0.00 in 471.00 W/m2
13:19 48.5 °F 26.5 °F 30.26 in Calm   2.0 mph 42% 0.00 in 468.00 W/m2
13:24 48.3 °F 25.7 °F 30.26 in SE 1.0 mph 9.0 mph 41% 0.00 in 457.00 W/m2
13:29 48.3 °F 21.9 °F 30.27 in SE 1.0 mph 1.0 mph 35% 0.00 in 448.00 W/m2
13:34 48.3 °F 22.6 °F 30.27 in East 3.0 mph 13.0 mph 36% 0.00 in 441.00 W/m2
13:39 48.4 °F 21.3 °F 30.26 in ENE 4.0 mph 13.0 mph 34% 0.00 in 434.00 W/m2
13:44 48.5 °F 20.7 °F 30.26 in Calm   5.0 mph 33% 0.00 in 424.00 W/m2
13:49 48.5 °F 21.4 °F 30.26 in ESE 5.0 mph 14.0 mph 34% 0.00 in 417.00 W/m2
13:54 48.5 °F 22.1 °F 30.26 in Calm   18.0 mph 35% 0.00 in 406.00 W/m2
13:59 48.5 °F 22.1 °F 30.26 in Calm   15.0 mph 35% 0.00 in 397.00 W/m2
14:00 48.5 °F 22.1 °F 30.26 in Calm   15.0 mph 35% 0.00 in 394.00 W/m2
14:05 48.5 °F 22.8 °F 30.25 in ENE 17.0 mph 23.0 mph 36% 0.00 in 396.00 W/m2
14:10 48.4 °F 22.7 °F 30.25 in Calm   20.0 mph 36% 0.00 in 374.00 W/m2
14:15 48.4 °F 25.2 °F 30.25 in Calm   1.0 mph 40% 0.00 in 364.00 W/m2
14:20 48.2 °F 25.6 °F 30.25 in Calm   9.0 mph 41% 0.00 in 353.00 W/m2
14:25 48.1 °F 25.5 °F 30.25 in ENE 3.0 mph 20.0 mph 41% 0.00 in 357.00 W/m2
14:30 47.9 °F 22.2 °F 30.25 in East 11.0 mph 15.0 mph 36% 0.00 in 330.00 W/m2
14:35 48.0 °F 23.0 °F 30.24 in Calm   13.0 mph 37% 0.00 in 316.00 W/m2
14:40 47.9 °F 24.1 °F 30.25 in Calm   1.0 mph 39% 0.00 in 306.00 W/m2
14:45 47.9 °F 24.1 °F 30.25 in Calm     39% 0.00 in 292.00 W/m2
14:50 47.7 °F 26.3 °F 30.26 in Calm   1.0 mph 43% 0.00 in 279.00 W/m2
14:55 47.4 °F 26.0 °F 30.26 in Calm     43% 0.00 in 267.00 W/m2
15:00 47.2 °F 24.7 °F 30.26 in Calm     41% 0.00 in 253.00 W/m2
15:05 47.2 °F 22.3 °F 30.26 in Calm     37% 0.00 in 239.00 W/m2
15:10 47.1 °F 24.6 °F 30.27 in Calm     41% 0.00 in 221.00 W/m2
15:15 47.0 °F 25.7 °F 30.27 in Calm     43% 0.00 in 202.00 W/m2
15:20 46.9 °F 24.5 °F 30.27 in Calm     41% 0.00 in 185.00 W/m2
15:26 46.9 °F 25.0 °F 30.27 in Calm     42% 0.00 in 169.00 W/m2
15:31 46.8 °F 26.0 °F 30.27 in Calm     44% 0.00 in 149.00 W/m2
15:36 46.7 °F 25.4 °F 30.27 in Calm     43% 0.00 in 132.00 W/m2
15:38 46.7 °F 25.4 °F 30.27 in Calm     43% 0.00 in 123.00 W/m2
15:43 46.5 °F 26.9 °F 30.28 in Calm     46% 0.00 in 107.00 W/m2
15:48 46.4 °F 27.8 °F 30.28 in Calm     48% 0.00 in 90.00 W/m2
15:58 46.0 °F 26.9 °F 30.28 in Calm     47% 0.00 in 62.00 W/m2
16:03 45.5 °F 25.4 °F 30.27 in Calm   2.0 mph 45% 0.00 in 49.00 W/m2
16:08 45.2 °F 27.7 °F 30.27 in Calm   1.0 mph 50% 0.00 in 40.00 W/m2
16:13 44.8 °F 29.2 °F 30.27 in Calm   1.0 mph 54% 0.00 in 28.00 W/m2
16:18 44.4 °F 29.3 °F 30.28 in Calm     55% 0.00 in 19.00 W/m2
16:23 44.0 °F 28.0 °F 30.28 in Calm   2.0 mph 53% 0.00 in 14.00 W/m2
16:28 43.4 °F 28.8 °F 30.28 in ENE 1.0 mph 6.0 mph 56% 0.00 in 12.00 W/m2
16:33 43.2 °F 28.1 °F 30.28 in Calm     55% 0.00 in 11.00 W/m2
16:38 43.0 °F 27.0 °F 30.28 in Calm     53% 0.00 in 9.00 W/m2
16:43 42.9 °F 25.1 °F 30.28 in Calm     49% 0.00 in 7.00 W/m2
16:48 42.7 °F 27.2 °F 30.28 in Calm     54% 0.00 in 5.00 W/m2
16:53 42.5 °F 27.0 °F 30.28 in Calm     54% 0.00 in 0.00 W/m2
16:58 42.3 °F 26.9 °F 30.28 in Calm     54% 0.00 in 0.00 W/m2
17:03 42.2 °F 25.4 °F 30.28 in Calm     51% 0.00 in 0.00 W/m2
17:08 42.0 °F 24.7 °F 30.28 in Calm     50% 0.00 in 0.00 W/m2
17:13 41.9 °F 23.7 °F 30.28 in Calm     48% 0.00 in 0.00 W/m2
17:18 41.4 °F 26.9 °F 30.28 in Calm     56% 0.00 in 0.00 W/m2
17:23 41.2 °F 27.1 °F 30.28 in Calm   1.0 mph 57% 0.00 in 0.00 W/m2
17:28 40.9 °F 24.2 °F 30.28 in Calm   3.0 mph 51% 0.00 in 0.00 W/m2
17:33 40.8 °F 23.1 °F 30.28 in Calm   2.0 mph 49% 0.00 in 0.00 W/m2
17:38 40.8 °F 23.6 °F 30.28 in ENE 1.0 mph 3.0 mph 50% 0.00 in 0.00 W/m2
17:40 40.8 °F 22.6 °F 30.28 in Calm   3.0 mph 48% 0.00 in 0.00 W/m2
17:45 40.9 °F 22.7 °F 30.28 in Calm     48% 0.00 in 0.00 W/m2
17:50 41.0 °F 20.8 °F 30.28 in Calm   1.0 mph 44% 0.00 in 0.00 W/m2
17:51 41.0 °F 22.8 °F 30.28 in Calm     48% 0.00 in 0.00 W/m2
17:56 41.1 °F 21.4 °F 30.28 in Calm     45% 0.00 in 0.00 W/m2
18:01 41.2 °F 22.0 °F 30.27 in Calm     46% 0.00 in 0.00 W/m2
18:06 41.1 °F 22.9 °F 30.28 in Calm     48% 0.00 in 0.00 W/m2
18:11 41.0 °F 21.8 °F 30.28 in Calm     46% 0.00 in 0.00 W/m2
18:16 40.8 °F 24.1 °F 30.28 in Calm     51% 0.00 in 0.00 W/m2
18:21 40.7 °F 21.0 °F 30.27 in Calm     45% 0.00 in 0.00 W/m2
18:26 40.5 °F 21.9 °F 30.28 in Calm     47% 0.00 in 0.00 W/m2
18:31 40.3 °F 22.7 °F 30.27 in Calm     49% 0.00 in 0.00 W/m2
18:36 40.0 °F 19.3 °F 30.27 in Calm     43% 0.00 in 0.00 W/m2
18:41 39.9 °F 20.8 °F 30.27 in Calm     46% 0.00 in 0.00 W/m2
18:46 39.9 °F 19.8 °F 30.27 in Calm     44% 0.00 in 0.00 W/m2
18:51 39.9 °F 21.8 °F 30.27 in Calm     48% 0.00 in 0.00 W/m2
18:56 39.8 °F 20.7 °F 30.27 in Calm     46% 0.00 in 0.00 W/m2
19:01 39.7 °F 22.6 °F 30.27 in Calm     50% 0.00 in 0.00 W/m2
19:06 39.6 °F 21.0 °F 30.27 in Calm     47% 0.00 in 0.00 W/m2
19:13 39.4 °F 21.4 °F 30.27 in Calm     48% 0.00 in 0.00 W/m2
19:18 39.3 °F 22.2 °F 30.27 in Calm     50% 0.00 in 0.00 W/m2
19:23 39.1 °F 21.6 °F 30.27 in Calm     49% 0.00 in 0.00 W/m2
19:28 39.1 °F 19.0 °F 30.27 in Calm     44% 0.00 in 0.00 W/m2
19:33 39.0 °F 21.0 °F 30.27 in Calm     48% 0.00 in 0.00 W/m2
19:38 39.0 °F 21.5 °F 30.27 in Calm     49% 0.00 in 0.00 W/m2
19:43 38.9 °F 21.9 °F 30.27 in Calm     50% 0.00 in 0.00 W/m2
19:48 38.8 °F 20.8 °F 30.28 in Calm     48% 0.00 in 0.00 W/m2
19:53 38.5 °F 19.5 °F 30.28 in Calm     46% 0.00 in 0.00 W/m2
19:58 38.3 °F 19.4 °F 30.28 in Calm     46% 0.00 in 0.00 W/m2
20:03 38.3 °F 19.9 °F 30.28 in Calm     47% 0.00 in 0.00 W/m2
20:04 38.3 °F 19.9 °F 30.28 in Calm     47% 0.00 in 0.00 W/m2
20:09 38.2 °F 19.8 °F 30.28 in Calm     47% 0.00 in 0.00 W/m2
20:14 38.1 °F 20.2 °F 30.28 in Calm     48% 0.00 in 0.00 W/m2
20:19 38.0 °F 20.5 °F 30.28 in Calm     49% 0.00 in 0.00 W/m2
20:24 38.0 °F 21.0 °F 30.28 in Calm     50% 0.00 in 0.00 W/m2
20:29 37.9 °F 21.4 °F 30.28 in Calm     51% 0.00 in 0.00 W/m2
20:34 37.9 °F 22.3 °F 30.28 in Calm     53% 0.00 in 0.00 W/m2
20:39 37.9 °F 21.4 °F 30.29 in Calm   1.0 mph 51% 0.00 in 0.00 W/m2
20:44 37.9 °F 20.5 °F 30.29 in Calm     49% 0.00 in 0.00 W/m2
20:49 37.9 °F 20.9 °F 30.29 in Calm     50% 0.00 in 0.00 W/m2
20:54 37.9 °F 20.9 °F 30.29 in Calm   1.0 mph 50% 0.00 in 0.00 W/m2
20:59 37.9 °F 20.9 °F 30.29 in Calm     50% 0.00 in 0.00 W/m2
21:04 38.0 °F 19.1 °F 30.29 in Calm     46% 0.00 in 0.00 W/m2
21:09 38.0 °F 19.1 °F 30.29 in Calm     46% 0.00 in 0.00 W/m2
21:14 38.2 °F 20.7 °F 30.29 in Calm     49% 0.00 in 0.00 W/m2
21:19 38.3 °F 18.8 °F 30.29 in Calm     45% 0.00 in 0.00 W/m2
21:24 38.4 °F 18.9 °F 30.30 in Calm     45% 0.00 in 0.00 W/m2
21:29 38.7 °F 17.6 °F 30.30 in Calm     42% 0.00 in 0.00 W/m2
21:34 38.9 °F 18.9 °F 30.30 in Calm     44% 0.00 in 0.00 W/m2
21:39 39.1 °F 17.4 °F 30.31 in Calm     41% 0.00 in 0.00 W/m2
21:44 39.3 °F 18.1 °F 30.31 in Calm     42% 0.00 in 0.00 W/m2
21:49 39.5 °F 18.9 °F 30.31 in Calm     43% 0.00 in 0.00 W/m2
21:54 39.5 °F 18.9 °F 30.31 in Calm   2.0 mph 43% 0.00 in 0.00 W/m2
21:59 39.6 °F 18.4 °F 30.31 in Calm   2.0 mph 42% 0.00 in 0.00 W/m2
22:04 39.7 °F 19.6 °F 30.31 in ESE 1.0 mph 1.0 mph 44% 0.00 in 0.00 W/m2
22:09 39.8 °F 19.1 °F 30.31 in East 1.0 mph 2.0 mph 43% 0.00 in 0.00 W/m2
22:14 39.9 °F 19.8 °F 30.31 in East 2.0 mph 2.0 mph 44% 0.00 in 0.00 W/m2
22:19 39.9 °F 19.2 °F 30.32 in East 2.0 mph 4.0 mph 43% 0.00 in 0.00 W/m2
22:24 40.0 °F 18.2 °F 30.32 in Calm   4.0 mph 41% 0.00 in 0.00 W/m2
22:29 40.1 °F 20.5 °F 30.32 in Calm   4.0 mph 45% 0.00 in 0.00 W/m2
22:34 40.2 °F 20.6 °F 30.32 in ENE 1.0 mph 2.0 mph 45% 0.00 in 0.00 W/m2
22:39 40.3 °F 20.7 °F 30.33 in Calm   2.0 mph 45% 0.00 in 0.00 W/m2
22:44 40.4 °F 19.1 °F 30.33 in Calm   2.0 mph 42% 0.00 in 0.00 W/m2
22:49 40.5 °F 19.8 °F 30.33 in Calm   2.0 mph 43% 0.00 in 0.00 W/m2
22:54 40.6 °F 18.8 °F 30.33 in ENE 1.0 mph 2.0 mph 41% 0.00 in 0.00 W/m2
22:59 40.6 °F 18.8 °F 30.33 in Calm   5.0 mph 41% 0.00 in 0.00 W/m2
23:04 40.6 °F 20.4 °F 30.33 in Calm   6.0 mph 44% 0.00 in 0.00 W/m2
23:09 40.5 °F 19.8 °F 30.33 in East 2.0 mph 7.0 mph 43% 0.00 in 0.00 W/m2
23:14 40.5 °F 18.7 °F 30.33 in Calm   6.0 mph 41% 0.00 in 0.00 W/m2
23:19 40.6 °F 22.0 °F 30.33 in Calm   7.0 mph 47% 0.00 in 0.00 W/m2
23:24 40.5 °F 20.9 °F 30.33 in Calm   6.0 mph 45% 0.00 in 0.00 W/m2
23:29 40.3 °F 20.7 °F 30.34 in East 1.0 mph 8.0 mph 45% 0.00 in 0.00 W/m2
23:34 40.2 °F 21.1 °F 30.34 in ENE 4.0 mph 5.0 mph 46% 0.00 in 0.00 W/m2
23:39 40.1 °F 21.0 °F 30.34 in Calm   9.0 mph 46% 0.00 in 0.00 W/m2
23:44 40.1 °F 20.5 °F 30.34 in Calm   9.0 mph 45% 0.00 in 0.00 W/m2
23:49 40.2 °F 19.5 °F 30.34 in East 2.0 mph 9.0 mph 43% 0.00 in 0.00 W/m2
23:54 40.5 °F 21.4 °F 30.34 in Calm   8.0 mph 46% 0.00 in 0.00 W/m2
23:59 40.7 °F 21.0 °F 30.34 in Calm   10.0 mph 45% 0.00 in 0.00 W/m2
Foresthill Weather
 WU-history PHP script courtesy of   Juneau County Weather.
powered by Cumulus v1.9.3 (1059)
Ambient Weather VWS v14.00
Top Contact Website Map Copyright © 2007 - 2018 Foresthillweather.com Never base important decisions on this or any weather information obtained from the Internet